createdAt,value
2018-05-26T00:00:52.215Z,99.99
2018-05-26T00:01:52.778Z,99.99
2018-05-26T00:02:53.340Z,99.99
2018-05-26T00:03:53.884Z,99.99
2018-05-26T00:04:54.426Z,99.99
2018-05-26T00:05:54.976Z,99.99
2018-05-26T00:06:55.527Z,99.99
2018-05-26T00:07:56.079Z,99.99
2018-05-26T00:08:56.625Z,99.99
2018-05-26T00:09:57.175Z,99.99
2018-05-26T00:10:57.719Z,99.99
2018-05-26T00:11:58.370Z,99.99
2018-05-26T00:12:58.917Z,99.99
2018-05-26T00:13:59.467Z,99.99
2018-05-26T00:15:00.016Z,99.99
2018-05-26T00:16:00.565Z,99.99
2018-05-26T00:17:01.111Z,99.99
2018-05-26T00:18:01.664Z,99.99
2018-05-26T00:19:02.215Z,99.99
2018-05-26T00:20:02.768Z,99.99
2018-05-26T00:21:03.309Z,99.99
2018-05-26T00:22:03.862Z,99.99
2018-05-26T00:23:04.620Z,99.99
2018-05-26T00:24:05.170Z,99.99
2018-05-26T00:25:05.722Z,99.99
2018-05-26T00:26:06.263Z,99.99
2018-05-26T00:27:06.812Z,99.99
2018-05-26T00:28:07.366Z,99.99
2018-05-26T00:29:07.919Z,99.99
2018-05-26T00:30:08.459Z,99.99
2018-05-26T00:31:09.013Z,99.99
2018-05-26T00:32:09.559Z,99.99
2018-05-26T00:33:10.108Z,99.99
2018-05-26T00:34:10.657Z,99.99
2018-05-26T00:35:11.206Z,99.99
2018-05-26T00:36:11.758Z,99.99
2018-05-26T00:37:12.301Z,99.99
2018-05-26T00:38:12.856Z,99.99
2018-05-26T00:39:13.403Z,99.99
2018-05-26T00:40:13.953Z,99.99
2018-05-26T00:41:14.498Z,99.99
2018-05-26T00:42:15.049Z,99.99
2018-05-26T00:43:15.593Z,99.99
2018-05-26T00:44:16.142Z,99.99
2018-05-26T00:45:16.685Z,99.99
2018-05-26T00:46:17.229Z,99.99
2018-05-26T00:47:17.775Z,99.99
2018-05-26T00:48:18.328Z,99.99
2018-05-26T00:49:18.878Z,99.99
2018-05-26T00:50:19.425Z,99.99
2018-05-26T00:51:19.974Z,99.99
2018-05-26T00:52:20.520Z,99.99
2018-05-26T00:53:21.072Z,99.99
2018-05-26T00:54:21.626Z,99.99
2018-05-26T00:55:22.179Z,99.99
2018-05-26T00:56:22.726Z,99.99
2018-05-26T00:57:23.278Z,99.99
2018-05-26T00:58:23.824Z,99.99
2018-05-26T00:59:24.370Z,99.99
2018-05-26T01:00:24.919Z,99.99
2018-05-26T01:01:25.473Z,99.99
2018-05-26T01:02:26.020Z,99.99
2018-05-26T01:03:26.573Z,99.99
2018-05-26T01:04:27.119Z,99.99
2018-05-26T01:05:27.671Z,99.99
2018-05-26T01:06:28.222Z,99.99
2018-05-26T01:07:28.774Z,99.99
2018-05-26T01:08:29.326Z,99.99
2018-05-26T01:09:29.881Z,99.99
2018-05-26T01:10:30.426Z,99.99
2018-05-26T01:11:30.977Z,99.99
2018-05-26T01:12:31.522Z,99.99
2018-05-26T01:13:32.075Z,99.99
2018-05-26T01:14:32.619Z,99.99
2018-05-26T01:15:33.163Z,99.99
2018-05-26T01:16:33.714Z,99.99
2018-05-26T01:17:34.265Z,99.99
2018-05-26T01:18:34.810Z,99.99
2018-05-26T01:19:35.362Z,99.99
2018-05-26T01:20:35.910Z,99.99
2018-05-26T01:21:36.459Z,99.99
2018-05-26T01:22:37.011Z,99.99
2018-05-26T01:23:37.551Z,99.99
2018-05-26T01:24:38.102Z,99.99
2018-05-26T01:25:38.658Z,99.99
2018-05-26T01:26:39.205Z,99.99
2018-05-26T01:27:39.758Z,99.99
2018-05-26T01:28:40.303Z,99.99
2018-05-26T01:29:40.858Z,99.99
2018-05-26T01:30:41.405Z,99.99
2018-05-26T01:31:41.952Z,99.99
2018-05-26T01:32:42.502Z,99.99
2018-05-26T01:33:43.055Z,99.99
2018-05-26T01:34:43.606Z,99.99
2018-05-26T01:35:44.160Z,99.99
2018-05-26T01:36:44.711Z,99.99
2018-05-26T01:37:45.263Z,99.99
2018-05-26T01:38:45.807Z,99.99
2018-05-26T01:39:46.359Z,99.99
2018-05-26T01:40:46.909Z,99.99
2018-05-26T01:41:47.465Z,99.99
2018-05-26T01:42:48.014Z,99.99
2018-05-26T01:43:48.566Z,99.99
2018-05-26T01:44:49.115Z,99.99
2018-05-26T01:45:49.666Z,99.99
2018-05-26T01:46:50.213Z,99.99
2018-05-26T01:47:50.814Z,99.99
2018-05-26T01:48:51.310Z,99.99
2018-05-26T01:49:51.863Z,99.99
2018-05-26T01:50:52.409Z,99.99
2018-05-26T01:51:52.964Z,99.99
2018-05-26T01:52:53.512Z,99.99
2018-05-26T01:53:54.064Z,99.99
2018-05-26T01:54:54.609Z,99.99
2018-05-26T01:55:55.162Z,99.99
2018-05-26T01:56:55.713Z,99.99
2018-05-26T01:57:56.267Z,99.99
2018-05-26T01:58:56.817Z,99.99
2018-05-26T01:59:57.368Z,99.99
2018-05-26T02:00:57.922Z,99.99
2018-05-26T02:01:58.470Z,99.99
2018-05-26T02:02:59.025Z,99.99
2018-05-26T02:03:59.569Z,99.99
2018-05-26T02:05:00.121Z,99.99
2018-05-26T02:06:00.672Z,99.99
2018-05-26T02:07:01.223Z,99.99
2018-05-26T02:08:01.821Z,99.99
2018-05-26T02:09:02.311Z,99.99
2018-05-26T02:10:02.853Z,99.99
2018-05-26T02:11:03.404Z,99.99
2018-05-26T02:12:03.957Z,99.99
2018-05-26T02:13:04.505Z,99.99
2018-05-26T02:14:05.061Z,99.99
2018-05-26T02:15:05.603Z,99.99
2018-05-26T02:16:06.150Z,99.99
2018-05-26T02:17:06.697Z,99.99
2018-05-26T02:18:07.261Z,99.99
2018-05-26T02:19:07.803Z,99.99
2018-05-26T02:20:08.353Z,99.99
2018-05-26T02:21:08.907Z,99.99
2018-05-26T02:22:09.457Z,99.99
2018-05-26T02:23:10.007Z,99.99
2018-05-26T02:24:10.555Z,99.99
2018-05-26T02:25:11.106Z,99.99
2018-05-26T02:26:11.651Z,99.99
2018-05-26T02:27:12.200Z,99.99
2018-05-26T02:28:12.751Z,99.99
2018-05-26T02:29:13.303Z,99.99
2018-05-26T02:30:13.848Z,99.99
2018-05-26T02:31:14.397Z,99.99
2018-05-26T02:32:14.943Z,99.99
2018-05-26T02:33:15.488Z,99.99
2018-05-26T02:34:16.040Z,99.99
2018-05-26T02:35:16.718Z,99.99
2018-05-26T02:36:17.267Z,99.99
2018-05-26T02:37:17.817Z,99.99
2018-05-26T02:38:18.361Z,99.99
2018-05-26T02:39:18.912Z,99.99
2018-05-26T02:40:19.468Z,99.99
2018-05-26T02:41:20.013Z,99.99
2018-05-26T02:42:20.565Z,99.99
2018-05-26T02:43:21.115Z,99.99
2018-05-26T02:44:21.660Z,99.99
2018-05-26T02:45:22.213Z,99.99
2018-05-26T02:46:22.756Z,99.99
2018-05-26T02:47:23.301Z,99.99
2018-05-26T02:48:23.853Z,99.99
2018-05-26T02:49:24.407Z,99.99
2018-05-26T02:50:24.956Z,99.99
2018-05-26T02:51:25.504Z,99.99
2018-05-26T02:52:26.060Z,99.99
2018-05-26T02:53:26.602Z,99.99
2018-05-26T02:54:27.150Z,99.99
2018-05-26T02:55:27.702Z,99.99
2018-05-26T02:56:28.250Z,99.99
2018-05-26T02:57:28.802Z,99.99
2018-05-26T02:58:29.348Z,99.99
2018-05-26T02:59:29.900Z,99.99
2018-05-26T03:00:30.450Z,99.99
2018-05-26T03:01:30.999Z,99.99
2018-05-26T03:02:31.551Z,99.99
2018-05-26T03:03:32.102Z,99.99
2018-05-26T03:04:32.654Z,99.99
2018-05-26T03:05:33.203Z,99.99
2018-05-26T03:06:33.797Z,99.99
2018-05-26T03:07:34.306Z,99.99
2018-05-26T03:08:34.856Z,99.99
2018-05-26T03:09:35.401Z,99.99
2018-05-26T03:10:35.948Z,99.99
2018-05-26T03:11:36.500Z,99.99
2018-05-26T03:12:37.046Z,99.99
2018-05-26T03:13:37.601Z,99.99
2018-05-26T03:14:38.149Z,99.99
2018-05-26T03:15:38.700Z,99.99
2018-05-26T03:16:39.247Z,99.99
2018-05-26T03:17:39.806Z,99.99
2018-05-26T03:18:40.345Z,99.99
2018-05-26T03:19:40.897Z,99.99
2018-05-26T03:20:41.451Z,99.99
2018-05-26T03:21:42.002Z,99.99
2018-05-26T03:22:42.554Z,99.99
2018-05-26T03:23:43.102Z,99.99
2018-05-26T03:24:43.652Z,99.99
2018-05-26T03:25:44.201Z,99.99
2018-05-26T03:26:44.752Z,99.99
2018-05-26T03:27:45.306Z,99.99
2018-05-26T03:28:45.857Z,99.99
2018-05-26T03:29:46.412Z,99.99
2018-05-26T03:30:46.965Z,99.99
2018-05-26T03:31:47.516Z,99.99
2018-05-26T03:32:48.063Z,99.99
2018-05-26T03:33:48.618Z,99.99
2018-05-26T03:34:49.173Z,99.99
2018-05-26T03:35:49.724Z,99.99
2018-05-26T03:36:50.276Z,99.99
2018-05-26T03:37:50.833Z,99.99
2018-05-26T03:38:51.387Z,99.99
2018-05-26T03:39:51.941Z,99.99
2018-05-26T03:40:52.495Z,99.99
2018-05-26T03:41:53.052Z,99.99
2018-05-26T03:42:53.601Z,99.99
2018-05-26T03:43:54.156Z,99.99
2018-05-26T03:44:54.746Z,99.99
2018-05-26T03:45:55.262Z,99.99
2018-05-26T03:46:55.810Z,99.99
2018-05-26T03:47:56.357Z,99.99
2018-05-26T03:48:56.912Z,99.99
2018-05-26T03:49:57.461Z,99.99
2018-05-26T03:50:58.015Z,99.99
2018-05-26T03:51:58.569Z,99.99
2018-05-26T03:52:59.124Z,99.99
2018-05-26T03:53:59.671Z,99.99
2018-05-26T03:55:00.230Z,99.99
2018-05-26T03:56:00.794Z,99.99
2018-05-26T03:57:01.338Z,99.99
2018-05-26T03:58:01.893Z,99.99
2018-05-26T03:59:02.447Z,99.99
2018-05-26T04:00:02.996Z,99.99
2018-05-26T04:01:03.550Z,99.99
2018-05-26T04:02:04.108Z,99.99
2018-05-26T04:03:04.664Z,99.99
2018-05-26T04:04:05.222Z,99.99
2018-05-26T04:05:05.770Z,99.99
2018-05-26T04:06:06.358Z,99.99
2018-05-26T04:07:06.872Z,99.99
2018-05-26T04:08:07.438Z,99.99
2018-05-26T04:09:07.984Z,99.99
2018-05-26T04:10:08.539Z,99.99
2018-05-26T04:11:09.093Z,99.99
2018-05-26T04:12:09.645Z,99.99
2018-05-26T04:13:10.197Z,99.99
2018-05-26T04:14:10.751Z,99.99
2018-05-26T04:15:11.302Z,99.99
2018-05-26T04:16:11.853Z,99.99
2018-05-26T04:17:12.406Z,99.99
2018-05-26T04:18:12.960Z,99.99
2018-05-26T04:19:13.521Z,99.99
2018-05-26T04:20:14.070Z,99.99
2018-05-26T04:21:14.624Z,99.99
2018-05-26T04:22:15.189Z,99.99
2018-05-26T04:23:15.738Z,99.99
2018-05-26T04:24:16.290Z,99.99
2018-05-26T04:25:16.842Z,99.99
2018-05-26T04:26:17.394Z,99.99
2018-05-26T04:27:17.953Z,99.99
2018-05-26T04:28:18.538Z,99.99
2018-05-26T04:29:19.055Z,99.99
2018-05-26T04:30:19.614Z,99.99
2018-05-26T04:31:20.168Z,99.99
2018-05-26T04:32:20.726Z,99.99
2018-05-26T04:33:21.284Z,99.99
2018-05-26T04:34:21.838Z,99.99
2018-05-26T04:35:22.444Z,99.99
2018-05-26T04:36:22.947Z,99.99
2018-05-26T04:37:23.507Z,99.99
2018-05-26T04:38:24.061Z,99.99
2018-05-26T04:39:24.612Z,99.99
2018-05-26T04:40:25.172Z,99.99
2018-05-26T04:41:25.726Z,99.99
2018-05-26T04:42:26.286Z,99.99
2018-05-26T04:43:26.843Z,99.99
2018-05-26T04:44:27.399Z,99.99
2018-05-26T04:45:27.956Z,99.99
2018-05-26T04:46:28.505Z,99.99
2018-05-26T04:47:29.059Z,99.99
2018-05-26T04:48:29.617Z,99.99
2018-05-26T04:49:30.176Z,99.99
2018-05-26T04:50:30.729Z,99.99
2018-05-26T04:51:31.284Z,99.99
2018-05-26T04:52:31.840Z,99.99
2018-05-26T04:53:32.394Z,99.99
2018-05-26T04:54:32.953Z,99.99
2018-05-26T04:55:33.512Z,99.99
2018-05-26T04:56:34.071Z,99.99
2018-05-26T04:57:34.631Z,99.99
2018-05-26T04:58:35.188Z,99.99
2018-05-26T04:59:35.748Z,99.99
2018-05-26T05:00:36.306Z,99.99
2018-05-26T05:01:36.865Z,99.99
2018-05-26T05:02:37.423Z,99.99
2018-05-26T05:03:37.979Z,99.99
2018-05-26T05:04:38.535Z,99.99
2018-05-26T05:05:39.098Z,99.99
2018-05-26T05:06:39.656Z,99.99
2018-05-26T05:07:40.220Z,98.29
2018-05-26T05:08:40.781Z,98.19
2018-05-26T05:09:41.341Z,97.42
2018-05-26T05:10:41.902Z,96.22
2018-05-26T05:11:42.464Z,95.89
2018-05-26T05:12:43.024Z,94.44
2018-05-26T05:13:43.593Z,92.94
2018-05-26T05:14:44.161Z,91.40
2018-05-26T05:15:44.725Z,91.35
2018-05-26T05:16:45.292Z,90.91
2018-05-26T05:17:45.859Z,88.69
2018-05-26T05:18:46.427Z,89.27
2018-05-26T05:19:46.996Z,87.87
2018-05-26T05:20:47.563Z,87.38
2018-05-26T05:21:48.131Z,87.19
2018-05-26T05:22:48.696Z,86.96
2018-05-26T05:23:49.255Z,88.40
2018-05-26T05:24:49.816Z,88.11
2018-05-26T05:25:50.381Z,88.15
2018-05-26T05:26:51.011Z,86.94
2018-05-26T05:27:51.513Z,86.36
2018-05-26T05:28:52.075Z,85.01
2018-05-26T05:29:52.642Z,85.30
2018-05-26T05:30:53.203Z,85.59
2018-05-26T05:31:53.766Z,85.44
2018-05-26T05:32:54.335Z,84.71
2018-05-26T05:33:54.895Z,83.55
2018-05-26T05:34:55.464Z,82.87
2018-05-26T05:35:56.035Z,82.78
2018-05-26T05:36:56.596Z,83.03
2018-05-26T05:37:57.365Z,84.19
2018-05-26T05:38:57.937Z,84.57
2018-05-26T05:39:58.496Z,84.13
2018-05-26T05:40:59.065Z,83.26
2018-05-26T05:41:59.632Z,82.72
2018-05-26T05:43:00.197Z,81.37
2018-05-26T05:44:00.766Z,81.37
2018-05-26T05:45:01.332Z,79.95
2018-05-26T05:46:01.907Z,80.20
2018-05-26T05:47:02.474Z,80.44
2018-05-26T05:48:03.044Z,79.80
2018-05-26T05:49:03.616Z,79.80
2018-05-26T05:50:04.187Z,78.34
2018-05-26T05:51:04.747Z,78.77
2018-05-26T05:52:05.320Z,78.00
2018-05-26T05:53:05.889Z,77.61
2018-05-26T05:54:06.457Z,76.45
2018-05-26T05:55:07.027Z,76.48
2018-05-26T05:56:07.592Z,75.90
2018-05-26T05:57:08.158Z,76.10
2018-05-26T05:58:08.730Z,76.04
2018-05-26T05:59:09.299Z,75.45
2018-05-26T06:00:09.869Z,75.03
2018-05-26T06:01:10.442Z,76.52
2018-05-26T06:02:11.013Z,76.07
2018-05-26T06:03:11.581Z,75.78
2018-05-26T06:04:12.147Z,74.56
2018-05-26T06:05:12.721Z,74.65
2018-05-26T06:06:13.291Z,75.62
2018-05-26T06:07:13.865Z,74.46
2018-05-26T06:08:14.444Z,74.13
2018-05-26T06:09:15.011Z,74.10
2018-05-26T06:10:15.577Z,74.87
2018-05-26T06:11:16.150Z,74.64
2018-05-26T06:12:16.724Z,74.58
2018-05-26T06:13:17.295Z,75.32
2018-05-26T06:14:17.868Z,75.71
2018-05-26T06:15:18.441Z,75.45
2018-05-26T06:16:19.009Z,74.84
2018-05-26T06:17:19.580Z,75.51
2018-05-26T06:18:20.149Z,75.81
2018-05-26T06:19:20.722Z,75.90
2018-05-26T06:20:21.291Z,76.06
2018-05-26T06:21:21.860Z,76.45
2018-05-26T06:22:22.422Z,76.21
2018-05-26T06:23:22.994Z,77.37
2018-05-26T06:24:23.568Z,78.11
2018-05-26T06:25:24.132Z,78.85
2018-05-26T06:26:24.759Z,78.66
2018-05-26T06:27:25.272Z,79.52
2018-05-26T06:28:25.840Z,79.52
2018-05-26T06:29:26.411Z,79.91
2018-05-26T06:30:26.980Z,80.30
2018-05-26T06:31:27.554Z,80.01
2018-05-26T06:32:28.120Z,79.72
2018-05-26T06:33:28.689Z,80.01
2018-05-26T06:34:29.255Z,79.85
2018-05-26T06:35:29.825Z,79.27
2018-05-26T06:36:30.389Z,79.47
2018-05-26T06:37:30.955Z,80.15
2018-05-26T06:38:31.525Z,80.05
2018-05-26T06:39:32.098Z,79.84
2018-05-26T06:40:32.668Z,79.64
2018-05-26T06:41:33.237Z,78.81
2018-05-26T06:42:33.804Z,77.98
2018-05-26T06:43:34.374Z,77.49
2018-05-26T06:44:34.944Z,77.43
2018-05-26T06:45:35.509Z,76.37
2018-05-26T06:46:36.085Z,76.01
2018-05-26T06:47:36.651Z,74.85
2018-05-26T06:48:37.224Z,75.43
2018-05-26T06:49:37.793Z,74.60
2018-05-26T06:50:38.361Z,73.91
2018-05-26T06:51:38.932Z,73.37
2018-05-26T06:52:39.505Z,72.27
2018-05-26T06:53:40.078Z,71.30
2018-05-26T06:54:40.644Z,71.11
2018-05-26T06:55:41.219Z,70.23
2018-05-26T06:56:41.816Z,70.81
2018-05-26T06:57:42.357Z,71.11
2018-05-26T06:58:42.928Z,69.97
2018-05-26T06:59:43.499Z,70.26
2018-05-26T07:00:44.073Z,70.75
2018-05-26T07:01:44.649Z,70.26
2018-05-26T07:02:45.224Z,70.36
2018-05-26T07:03:45.797Z,70.26
2018-05-26T07:04:46.363Z,70.46
2018-05-26T07:05:46.930Z,69.78
2018-05-26T07:06:47.499Z,68.80
2018-05-26T07:07:48.070Z,68.80
2018-05-26T07:08:48.654Z,68.90
2018-05-26T07:09:49.233Z,69.10
2018-05-26T07:10:49.802Z,68.93
2018-05-26T07:11:50.373Z,68.45
2018-05-26T07:12:50.944Z,68.64
2018-05-26T07:13:51.518Z,68.16
2018-05-26T07:14:52.091Z,67.47
2018-05-26T07:15:52.660Z,67.50
2018-05-26T07:16:53.236Z,67.28
2018-05-26T07:17:53.810Z,68.19
2018-05-26T07:18:54.380Z,67.15
2018-05-26T07:19:54.956Z,66.47
2018-05-26T07:20:55.532Z,65.98
2018-05-26T07:21:56.102Z,64.97
2018-05-26T07:22:56.678Z,64.39
2018-05-26T07:23:57.253Z,64.12
2018-05-26T07:24:57.825Z,64.19
2018-05-26T07:25:58.396Z,64.19
2018-05-26T07:26:58.969Z,64.19
2018-05-26T07:27:59.542Z,64.22
2018-05-26T07:29:00.116Z,64.12
2018-05-26T07:30:00.690Z,64.32
2018-05-26T07:31:01.264Z,64.22
2018-05-26T07:32:01.870Z,64.03
2018-05-26T07:33:02.407Z,63.24
2018-05-26T07:34:02.979Z,62.08
2018-05-26T07:35:03.548Z,61.76
2018-05-26T07:36:04.123Z,62.73
2018-05-26T07:37:04.702Z,63.02
2018-05-26T07:38:05.272Z,61.27
2018-05-26T07:39:05.856Z,60.91
2018-05-26T07:40:06.429Z,60.91
2018-05-26T07:41:07.007Z,61.00
2018-05-26T07:42:07.583Z,61.00
2018-05-26T07:43:08.147Z,61.27
2018-05-26T07:44:08.716Z,61.36
2018-05-26T07:45:09.286Z,61.85
2018-05-26T07:46:09.857Z,62.15
2018-05-26T07:47:10.451Z,62.12
2018-05-26T07:48:11.007Z,63.38
2018-05-26T07:49:11.583Z,63.57
2018-05-26T07:50:12.158Z,63.51
2018-05-26T07:51:12.726Z,62.41
2018-05-26T07:52:13.296Z,62.53
2018-05-26T07:53:13.883Z,61.85
2018-05-26T07:54:14.448Z,63.51
2018-05-26T07:55:15.013Z,62.63
2018-05-26T07:56:15.590Z,62.12
2018-05-26T07:57:16.161Z,62.79
2018-05-26T07:58:16.804Z,63.18
2018-05-26T07:59:17.323Z,63.60
2018-05-26T08:00:17.874Z,62.70
2018-05-26T08:01:18.448Z,63.28
2018-05-26T08:02:19.022Z,63.31
2018-05-26T08:03:19.596Z,63.41
2018-05-26T08:04:20.175Z,63.28
2018-05-26T08:05:20.751Z,63.57
2018-05-26T08:06:21.319Z,63.15
2018-05-26T08:07:21.893Z,64.10
2018-05-26T08:08:22.461Z,64.39
2018-05-26T08:09:23.037Z,64.36
2018-05-26T08:10:23.608Z,64.78
2018-05-26T08:11:24.182Z,64.87
2018-05-26T08:12:24.760Z,64.29
2018-05-26T08:13:25.328Z,64.29
2018-05-26T08:14:25.897Z,64.55
2018-05-26T08:15:26.471Z,62.31
2018-05-26T08:16:27.046Z,63.15
2018-05-26T08:17:27.629Z,63.25
2018-05-26T08:18:28.187Z,63.54
2018-05-26T08:19:28.759Z,62.57
2018-05-26T08:20:29.327Z,63.15
2018-05-26T08:21:29.904Z,64.23
2018-05-26T08:22:30.475Z,64.36
2018-05-26T08:23:31.050Z,64.06
2018-05-26T08:24:31.625Z,64.09
2018-05-26T08:25:32.194Z,64.09
2018-05-26T08:26:32.767Z,63.24
2018-05-26T08:27:33.340Z,62.34
2018-05-26T08:28:33.917Z,62.05
2018-05-26T08:29:34.489Z,62.44
2018-05-26T08:30:35.063Z,62.44
2018-05-26T08:31:35.639Z,62.63
2018-05-26T08:32:36.208Z,62.79
2018-05-26T08:33:36.782Z,62.53
2018-05-26T08:34:37.357Z,62.73
2018-05-26T08:35:37.936Z,62.70
2018-05-26T08:36:38.508Z,63.35
2018-05-26T08:37:39.082Z,63.57
2018-05-26T08:38:39.654Z,63.21
2018-05-26T08:39:40.233Z,63.70
2018-05-26T08:40:40.800Z,63.21
2018-05-26T08:41:41.370Z,61.76
2018-05-26T08:42:41.943Z,63.28
2018-05-26T08:43:42.511Z,62.99
2018-05-26T08:44:43.077Z,62.15
2018-05-26T08:45:43.649Z,60.81
2018-05-26T08:46:44.224Z,60.74
2018-05-26T08:47:44.794Z,61.33
2018-05-26T08:48:45.367Z,61.43
2018-05-26T08:49:45.940Z,61.33
2018-05-26T08:50:46.515Z,60.96
2018-05-26T08:51:47.089Z,59.57
2018-05-26T08:52:47.664Z,60.47
2018-05-26T08:53:48.236Z,59.89
2018-05-26T08:54:48.849Z,59.47
2018-05-26T08:55:49.370Z,60.35
2018-05-26T08:56:49.947Z,59.77
2018-05-26T08:57:50.517Z,60.94
2018-05-26T08:58:51.085Z,61.13
2018-05-26T08:59:51.660Z,61.06
2018-05-26T09:00:52.228Z,58.94
2018-05-26T09:01:52.795Z,59.72
2018-05-26T09:02:53.367Z,58.75
2018-05-26T09:03:53.942Z,58.98
2018-05-26T09:04:54.513Z,60.16
2018-05-26T09:05:55.088Z,60.06
2018-05-26T09:06:55.660Z,59.77
2018-05-26T09:07:56.233Z,59.28
2018-05-26T09:08:56.802Z,60.22
2018-05-26T09:09:57.377Z,60.03
2018-05-26T09:10:57.948Z,60.55
2018-05-26T09:11:58.521Z,59.57
2018-05-26T09:12:59.086Z,59.77
2018-05-26T09:13:59.659Z,61.00
2018-05-26T09:15:00.236Z,60.71
2018-05-26T09:16:00.804Z,59.86
2018-05-26T09:17:01.382Z,60.74
2018-05-26T09:18:01.954Z,58.91
2018-05-26T09:19:02.522Z,59.77
2018-05-26T09:20:03.093Z,60.84
2018-05-26T09:21:03.666Z,59.74
2018-05-26T09:22:04.238Z,59.74
2018-05-26T09:23:04.812Z,59.57
2018-05-26T09:24:05.386Z,59.08
2018-05-26T09:25:06.020Z,58.50
2018-05-26T09:26:06.525Z,58.47
2018-05-26T09:27:07.098Z,59.83
2018-05-26T09:28:07.665Z,60.71
2018-05-26T09:29:08.238Z,60.16
2018-05-26T09:30:08.812Z,59.57
2018-05-26T09:31:09.382Z,60.32
2018-05-26T09:32:09.961Z,61.33
2018-05-26T09:33:10.535Z,59.57
2018-05-26T09:34:11.105Z,59.18
2018-05-26T09:35:11.898Z,61.33
2018-05-26T09:36:12.475Z,61.45
2018-05-26T09:37:13.048Z,61.23
2018-05-26T09:38:13.620Z,58.98
2018-05-26T09:39:14.191Z,58.37
2018-05-26T09:40:14.761Z,59.54
2018-05-26T09:41:15.339Z,59.64
2018-05-26T09:42:15.911Z,59.57
2018-05-26T09:43:16.489Z,58.79
2018-05-26T09:44:17.060Z,58.11
2018-05-26T09:45:17.632Z,58.59
2018-05-26T09:46:18.205Z,58.11
2018-05-26T09:47:18.782Z,59.02
2018-05-26T09:48:19.360Z,59.51
2018-05-26T09:49:19.930Z,59.74
2018-05-26T09:50:20.511Z,58.99
2018-05-26T09:51:21.081Z,60.68
2018-05-26T09:52:21.658Z,60.68
2018-05-26T09:53:22.235Z,59.12
2018-05-26T09:54:22.807Z,59.64
2018-05-26T09:55:23.378Z,60.85
2018-05-26T09:56:23.968Z,59.55
2018-05-26T09:57:24.524Z,60.78
2018-05-26T09:58:25.097Z,61.11
2018-05-26T09:59:25.672Z,60.03
2018-05-26T10:00:26.249Z,60.82
2018-05-26T10:01:26.819Z,59.64
2018-05-26T10:02:27.392Z,59.58
2018-05-26T10:03:27.978Z,60.06
2018-05-26T10:04:28.550Z,59.77
2018-05-26T10:05:29.118Z,58.83
2018-05-26T10:06:29.689Z,58.70
2018-05-26T10:07:30.258Z,58.12
2018-05-26T10:08:30.833Z,59.12
2018-05-26T10:09:31.396Z,59.31
2018-05-26T10:10:31.967Z,58.34
2018-05-26T10:11:32.540Z,57.65
2018-05-26T10:12:33.105Z,57.36
2018-05-26T10:13:33.702Z,56.97
2018-05-26T10:14:34.246Z,57.10
2018-05-26T10:15:34.826Z,57.29
2018-05-26T10:16:35.395Z,57.36
2018-05-26T10:17:35.969Z,57.34
2018-05-26T10:18:36.539Z,58.53
2018-05-26T10:19:37.111Z,58.47
2018-05-26T10:20:37.682Z,58.50
2018-05-26T10:21:38.257Z,57.81
2018-05-26T10:22:38.831Z,57.03
2018-05-26T10:23:39.405Z,56.35
2018-05-26T10:24:39.978Z,56.76
2018-05-26T10:25:40.548Z,57.45
2018-05-26T10:26:41.123Z,55.98
2018-05-26T10:27:41.695Z,56.05
2018-05-26T10:28:42.261Z,56.96
2018-05-26T10:29:42.835Z,55.00
2018-05-26T10:30:43.403Z,53.76
2018-05-26T10:31:43.976Z,54.47
2018-05-26T10:32:44.555Z,55.22
2018-05-26T10:33:45.121Z,56.33
2018-05-26T10:34:45.694Z,54.38
2018-05-26T10:35:46.268Z,54.11
2018-05-26T10:36:46.834Z,53.66
2018-05-26T10:37:47.410Z,54.35
2018-05-26T10:38:47.980Z,55.03
2018-05-26T10:39:48.549Z,55.62
2018-05-26T10:40:49.123Z,54.38
2018-05-26T10:41:49.693Z,54.15
2018-05-26T10:42:50.256Z,54.13
2018-05-26T10:43:50.826Z,55.20
2018-05-26T10:44:51.395Z,55.81
2018-05-26T10:45:51.962Z,54.42
2018-05-26T10:46:52.532Z,54.39
2018-05-26T10:47:53.105Z,55.37
2018-05-26T10:48:53.674Z,55.18
2018-05-26T10:49:54.271Z,55.63
2018-05-26T10:50:54.847Z,55.08
2018-05-26T10:51:55.391Z,55.00
2018-05-26T10:52:55.972Z,54.83
2018-05-26T10:53:56.551Z,55.20
2018-05-26T10:54:57.100Z,55.00
2018-05-26T10:55:57.733Z,55.81
2018-05-26T10:56:58.244Z,55.32
2018-05-26T10:57:58.816Z,53.59
2018-05-26T10:58:59.386Z,53.30
2018-05-26T10:59:59.953Z,54.69
2018-05-26T11:01:00.529Z,53.42
2018-05-26T11:02:01.101Z,53.98
2018-05-26T11:03:01.668Z,54.38
2018-05-26T11:04:02.239Z,53.81
2018-05-26T11:05:02.810Z,53.88
2018-05-26T11:06:03.382Z,52.91
2018-05-26T11:07:03.953Z,52.05
2018-05-26T11:08:04.524Z,52.25
2018-05-26T11:09:05.097Z,53.30
2018-05-26T11:10:05.668Z,52.93
2018-05-26T11:11:06.245Z,52.54
2018-05-26T11:12:06.814Z,52.44
2018-05-26T11:13:07.386Z,54.13
2018-05-26T11:14:07.954Z,53.45
2018-05-26T11:15:08.544Z,53.77
2018-05-26T11:16:09.259Z,54.16
2018-05-26T11:17:09.672Z,51.68
2018-05-26T11:18:10.237Z,50.71
2018-05-26T11:19:10.806Z,51.71
2018-05-26T11:20:11.384Z,50.90
2018-05-26T11:21:11.946Z,51.20
2018-05-26T11:22:12.516Z,51.95
2018-05-26T11:23:13.088Z,52.64
2018-05-26T11:24:13.727Z,53.91
2018-05-26T11:25:14.257Z,53.20
2018-05-26T11:26:14.843Z,52.69
2018-05-26T11:27:15.381Z,53.69
2018-05-26T11:28:15.961Z,53.72
2018-05-26T11:29:16.523Z,51.66
2018-05-26T11:30:17.090Z,51.49
2018-05-26T11:31:17.664Z,51.98
2018-05-26T11:32:18.236Z,52.59
2018-05-26T11:33:18.804Z,52.10
2018-05-26T11:34:19.381Z,52.23
2018-05-26T11:35:19.953Z,51.25
2018-05-26T11:36:20.522Z,50.39
2018-05-26T11:37:21.115Z,51.10
2018-05-26T11:38:21.669Z,51.39
2018-05-26T11:39:22.244Z,50.27
2018-05-26T11:40:22.817Z,50.12
2018-05-26T11:41:23.385Z,51.29
2018-05-26T11:42:23.958Z,52.10
2018-05-26T11:43:24.528Z,53.47
2018-05-26T11:44:25.098Z,52.10
2018-05-26T11:45:25.671Z,52.72
2018-05-26T11:46:26.245Z,51.05
2018-05-26T11:47:26.820Z,50.27
2018-05-26T11:48:27.393Z,50.44
2018-05-26T11:49:27.962Z,50.88
2018-05-26T11:50:28.535Z,49.97
2018-05-26T11:51:29.109Z,51.20
2018-05-26T11:52:29.682Z,49.82
2018-05-26T11:53:30.256Z,49.75
2018-05-26T11:54:30.826Z,48.57
2018-05-26T11:55:31.399Z,48.21
2018-05-26T11:56:31.972Z,47.52
2018-05-26T11:57:32.549Z,48.40
2018-05-26T11:58:33.122Z,48.67
2018-05-26T11:59:33.692Z,48.35
2018-05-26T12:00:34.265Z,48.65
2018-05-26T12:01:34.837Z,48.82
2018-05-26T12:02:35.417Z,48.63
2018-05-26T12:03:35.987Z,49.41
2018-05-26T12:04:36.565Z,50.42
2018-05-26T12:05:37.136Z,49.51
2018-05-26T12:06:37.705Z,50.27
2018-05-26T12:07:38.284Z,50.56
2018-05-26T12:08:38.853Z,51.20
2018-05-26T12:09:39.417Z,50.61
2018-05-26T12:10:39.996Z,50.81
2018-05-26T12:11:40.564Z,50.12
2018-05-26T12:12:41.137Z,49.55
2018-05-26T12:13:41.712Z,49.58
2018-05-26T12:14:42.289Z,48.60
2018-05-26T12:15:42.860Z,49.55
2018-05-26T12:16:43.431Z,48.92
2018-05-26T12:17:44.005Z,48.90
2018-05-26T12:18:44.577Z,49.70
2018-05-26T12:19:45.144Z,50.85
2018-05-26T12:20:45.710Z,50.49
2018-05-26T12:21:46.279Z,50.20
2018-05-26T12:22:46.852Z,51.56
2018-05-26T12:23:47.417Z,50.49
2018-05-26T12:24:47.991Z,49.51
2018-05-26T12:25:48.563Z,50.39
2018-05-26T12:26:49.141Z,49.80
2018-05-26T12:27:49.705Z,50.42
2018-05-26T12:28:50.276Z,48.38
2018-05-26T12:29:50.849Z,49.26
2018-05-26T12:30:51.420Z,50.66
2018-05-26T12:31:51.990Z,50.66
2018-05-26T12:32:52.574Z,49.60
2018-05-26T12:33:53.130Z,49.04
2018-05-26T12:34:53.699Z,48.65
2018-05-26T12:35:54.275Z,48.86
2018-05-26T12:36:54.845Z,48.69
2018-05-26T12:37:55.422Z,48.84
2018-05-26T12:38:55.990Z,49.73
2018-05-26T12:39:56.567Z,49.21
2018-05-26T12:40:57.142Z,49.41
2018-05-26T12:41:57.714Z,50.29
2018-05-26T12:42:58.287Z,51.27
2018-05-26T12:43:58.860Z,51.10
2018-05-26T12:44:59.433Z,50.44
2018-05-26T12:46:00.009Z,49.36
2018-05-26T12:47:00.572Z,48.30
2018-05-26T12:48:01.145Z,48.50
2018-05-26T12:49:01.711Z,48.23
2018-05-26T12:50:02.282Z,47.42
2018-05-26T12:51:02.859Z,48.50
2018-05-26T12:52:03.437Z,48.77
2018-05-26T12:53:04.010Z,49.24
2018-05-26T12:54:04.577Z,50.78
2018-05-26T12:55:05.147Z,51.00
2018-05-26T12:56:05.728Z,49.80
2018-05-26T12:57:06.297Z,50.98
2018-05-26T12:58:06.871Z,50.29
2018-05-26T12:59:07.446Z,50.32
2018-05-26T13:00:08.022Z,49.99